Wolf Lake, Minnesota
Current Conditions -  °F | °C
As of 5:53 PM on Friday 24 Oct 2014 (Local Time) from KPKD Reporting Station
Clear Clear  
Wind Chill: 62°   Ceiling: Unl
Heat Index: 62°   Visibility: 10mi
Dew Point: 41°   Wind: 9mph
Humidity: 46%   Direction: 240°WSW
Pressure: 29.79"   Gusts: NA
Location:  46.8°N, 95.35°W
Report Text: KPKD 242253Z AUTO 24008KT 10SM CLR 17/05 A2979 RMK AO2 SLP090 T01670050 TSNO
Loading
Personal Weather Stations






























Interactive Weather Map
Tropical Storm Tracking
New forecast layout! Learn more

10-Day Weather Forecast

Advertisements
Track Severe Weather on mobile